Overview Statistics Trail Chart Weather Telemetry Raw packets
 

This is the latest recevied weather packets stored in our database for station/object YH8VA-1. If no packets are shown the sender has not sent any weather packets the latest 10 day(s).

<< 36 37 38 39 40 41 42 >>
Time Temp. Humidity Pressure Rain* Wind** Luminosity Snow
1777522614 33.89° C 58% 999 hPa - - 0 W/m² -
1777522292 33.33° C 60% 999 hPa - - 0 W/m² -
1777521970 33.89° C 58% 999 hPa - - 0 W/m² -
1777521648 33.89° C 58% 999 hPa - - 0 W/m² -
1777521325 33.89° C 58% 999 hPa - - 0 W/m² -
1777521003 33.89° C 58% 999 hPa - - 0 W/m² -
1777520681 33.89° C 58% 1000 hPa - - 0 W/m² -
1777520360 33.89° C 57% 999 hPa - - 0 W/m² -
1777520038 33.89° C 58% 999 hPa - - 0 W/m² -
1777519715 33.89° C 58% 1000 hPa - - 0 W/m² -
1777519393 33.33° C 59% 1000 hPa - - 0 W/m² -
1777519070 33.33° C 59% 1000 hPa - - 0 W/m² -
1777518748 33.33° C 59% 1000 hPa - - 0 W/m² -
1777518426 33.89° C 58% 1000 hPa - - 0 W/m² -
1777518104 33.89° C 59% 1000 hPa - - 0 W/m² -
1777517782 32.78° C 61% 1000 hPa - - 0 W/m² -
1777517459 33.33° C 59% 1001 hPa - - 0 W/m² -
1777517137 33.33° C 60% 1001 hPa - - 0 W/m² -
1777516815 32.78° C 60% 1001 hPa - - 0 W/m² -
1777516493 33.33° C 59% 1001 hPa - - 0 W/m² -
1777516171 32.22° C 62% 1001 hPa - - 0 W/m² -
1777515849 33.33° C 59% 1001 hPa - - 0 W/m² -
1777515527 33.33° C 59% 1001 hPa - - 0 W/m² -
1777515203 33.33° C 59% 1001 hPa - - 0 W/m² -
1777514882 33.33° C 59% 1001 hPa - - 0 W/m² -

* Rain since midnight (hover to see other rain measurements)
** Current wind speed in m/s (hover to see current wind gust speed)